sensor_id;sensor_type;location;lat;lon;timestamp;P1;durP1;ratioP1;P2;durP2;ratioP2
50757;SDS011;36732;47.980;11.652;2023-05-19T00:01:08;4.80;;;2.60;;
50757;SDS011;36732;47.980;11.652;2023-05-19T00:03:39;8.80;;;3.50;;
50757;SDS011;36732;47.980;11.652;2023-05-19T00:06:20;4.88;;;2.92;;
50757;SDS011;36732;47.980;11.652;2023-05-19T00:08:49;6.22;;;3.30;;
50757;SDS011;36732;47.980;11.652;2023-05-19T00:11:21;6.30;;;3.30;;
50757;SDS011;36732;47.980;11.652;2023-05-19T00:13:47;6.22;;;3.22;;
50757;SDS011;36732;47.980;11.652;2023-05-19T00:16:15;6.50;;;2.92;;
50757;SDS011;36732;47.980;11.652;2023-05-19T00:18:41;5.30;;;3.00;;
50757;SDS011;36732;47.980;11.652;2023-05-19T00:21:07;5.20;;;2.70;;
50757;SDS011;36732;47.980;11.652;2023-05-19T00:23:33;11.27;;;3.55;;
50757;SDS011;36732;47.980;11.652;2023-05-19T00:25:59;5.85;;;3.35;;
50757;SDS011;36732;47.980;11.652;2023-05-19T00:28:25;6.15;;;3.13;;
50757;SDS011;36732;47.980;11.652;2023-05-19T00:30:50;9.32;;;3.70;;
50757;SDS011;36732;47.980;11.652;2023-05-19T00:33:16;8.40;;;3.08;;
50757;SDS011;36732;47.980;11.652;2023-05-19T00:35:42;5.95;;;2.90;;
50757;SDS011;36732;47.980;11.652;2023-05-19T00:38:07;8.07;;;3.10;;
50757;SDS011;36732;47.980;11.652;2023-05-19T00:40:34;7.78;;;3.15;;
50757;SDS011;36732;47.980;11.652;2023-05-19T00:43:02;7.13;;;3.30;;
50757;SDS011;36732;47.980;11.652;2023-05-19T00:45:29;5.78;;;2.78;;
50757;SDS011;36732;47.980;11.652;2023-05-19T00:47:55;6.47;;;3.67;;
50757;SDS011;36732;47.980;11.652;2023-05-19T00:50:21;4.55;;;2.92;;
50757;SDS011;36732;47.980;11.652;2023-05-19T00:52:51;12.13;;;3.42;;
50757;SDS011;36732;47.980;11.652;2023-05-19T00:55:17;4.03;;;3.00;;
50757;SDS011;36732;47.980;11.652;2023-05-19T00:57:45;6.53;;;3.30;;
50757;SDS011;36732;47.980;11.652;2023-05-19T01:00:12;8.68;;;3.75;;
50757;SDS011;36732;47.980;11.652;2023-05-19T01:02:39;5.38;;;3.38;;
50757;SDS011;36732;47.980;11.652;2023-05-19T01:05:05;5.40;;;2.80;;
50757;SDS011;36732;47.980;11.652;2023-05-19T01:07:32;6.57;;;2.88;;
50757;SDS011;36732;47.980;11.652;2023-05-19T01:09:58;5.65;;;3.13;;
50757;SDS011;36732;47.980;11.652;2023-05-19T01:12:24;4.93;;;2.95;;
50757;SDS011;36732;47.980;11.652;2023-05-19T01:14:50;6.05;;;3.28;;
50757;SDS011;36732;47.980;11.652;2023-05-19T01:20:20;9.35;;;3.47;;
50757;SDS011;36732;47.980;11.652;2023-05-19T01:31:11;5.15;;;2.88;;
50757;SDS011;36732;47.980;11.652;2023-05-19T01:33:38;6.35;;;3.25;;
50757;SDS011;36732;47.980;11.652;2023-05-19T01:36:06;8.70;;;3.20;;
50757;SDS011;36732;47.980;11.652;2023-05-19T01:38:33;5.88;;;3.47;;
50757;SDS011;36732;47.980;11.652;2023-05-19T01:41:02;6.75;;;3.30;;
50757;SDS011;36732;47.980;11.652;2023-05-19T01:43:28;5.07;;;3.30;;
50757;SDS011;36732;47.980;11.652;2023-05-19T01:45:55;5.55;;;2.88;;
50757;SDS011;36732;47.980;11.652;2023-05-19T01:48:22;6.35;;;3.20;;
50757;SDS011;36732;47.980;11.652;2023-05-19T01:50:49;8.27;;;3.47;;
50757;SDS011;36732;47.980;11.652;2023-05-19T01:53:15;5.22;;;2.80;;
50757;SDS011;36732;47.980;11.652;2023-05-19T01:55:42;6.07;;;3.17;;
50757;SDS011;36732;47.980;11.652;2023-05-19T02:06:45;5.30;;;2.92;;
50757;SDS011;36732;47.980;11.652;2023-05-19T02:12:44;6.20;;;3.63;;
50757;SDS011;36732;47.980;11.652;2023-05-19T02:15:10;6.45;;;3.08;;
50757;SDS011;36732;47.980;11.652;2023-05-19T02:17:46;6.03;;;3.40;;
50757;SDS011;36732;47.980;11.652;2023-05-19T02:20:15;6.43;;;3.08;;
50757;SDS011;36732;47.980;11.652;2023-05-19T02:22:42;8.30;;;3.03;;
50757;SDS011;36732;47.980;11.652;2023-05-19T02:25:09;7.85;;;3.80;;
50757;SDS011;36732;47.980;11.652;2023-05-19T02:27:35;4.50;;;3.03;;
50757;SDS011;36732;47.980;11.652;2023-05-19T02:30:03;6.75;;;3.28;;
50757;SDS011;36732;47.980;11.652;2023-05-19T02:32:30;7.32;;;3.33;;
50757;SDS011;36732;47.980;11.652;2023-05-19T02:34:56;9.48;;;4.20;;
50757;SDS011;36732;47.980;11.652;2023-05-19T02:37:22;6.60;;;3.33;;
50757;SDS011;36732;47.980;11.652;2023-05-19T02:39:49;5.28;;;2.70;;
50757;SDS011;36732;47.980;11.652;2023-05-19T02:42:15;8.05;;;3.45;;
50757;SDS011;36732;47.980;11.652;2023-05-19T02:44:43;9.15;;;3.40;;
50757;SDS011;36732;47.980;11.652;2023-05-19T02:47:10;5.28;;;2.60;;
50757;SDS011;36732;47.980;11.652;2023-05-19T02:49:36;12.77;;;4.45;;
50757;SDS011;36732;47.980;11.652;2023-05-19T02:52:02;9.27;;;3.50;;
50757;SDS011;36732;47.980;11.652;2023-05-19T02:54:29;6.97;;;2.72;;
50757;SDS011;36732;47.980;11.652;2023-05-19T02:56:56;6.57;;;3.35;;
50757;SDS011;36732;47.980;11.652;2023-05-19T02:59:22;5.60;;;3.50;;
50757;SDS011;36732;47.980;11.652;2023-05-19T03:01:48;7.45;;;3.70;;
50757;SDS011;36732;47.980;11.652;2023-05-19T03:04:15;6.82;;;3.38;;
50757;SDS011;36732;47.980;11.652;2023-05-19T03:06:44;7.57;;;3.22;;
50757;SDS011;36732;47.980;11.652;2023-05-19T03:09:10;10.85;;;3.30;;
50757;SDS011;36732;47.980;11.652;2023-05-19T03:11:40;5.95;;;3.35;;
50757;SDS011;36732;47.980;11.652;2023-05-19T03:14:05;7.57;;;3.53;;
50757;SDS011;36732;47.980;11.652;2023-05-19T03:16:33;5.93;;;3.15;;
50757;SDS011;36732;47.980;11.652;2023-05-19T03:18:59;7.53;;;3.30;;
50757;SDS011;36732;47.980;11.652;2023-05-19T03:21:25;4.65;;;2.88;;
50757;SDS011;36732;47.980;11.652;2023-05-19T03:23:51;6.43;;;3.38;;
50757;SDS011;36732;47.980;11.652;2023-05-19T03:26:17;4.88;;;2.90;;
50757;SDS011;36732;47.980;11.652;2023-05-19T03:28:42;5.75;;;2.95;;
50757;SDS011;36732;47.980;11.652;2023-05-19T03:31:08;7.28;;;3.20;;
50757;SDS011;36732;47.980;11.652;2023-05-19T03:33:34;8.60;;;3.58;;
50757;SDS011;36732;47.980;11.652;2023-05-19T03:36:00;6.78;;;3.13;;
50757;SDS011;36732;47.980;11.652;2023-05-19T03:38:25;10.02;;;4.13;;
50757;SDS011;36732;47.980;11.652;2023-05-19T03:40:51;7.28;;;3.33;;
50757;SDS011;36732;47.980;11.652;2023-05-19T03:43:17;5.80;;;3.10;;
50757;SDS011;36732;47.980;11.652;2023-05-19T03:45:43;6.15;;;3.00;;
50757;SDS011;36732;47.980;11.652;2023-05-19T03:48:09;5.72;;;4.00;;
50757;SDS011;36732;47.980;11.652;2023-05-19T03:50:34;10.55;;;3.67;;
50757;SDS011;36732;47.980;11.652;2023-05-19T03:53:02;6.95;;;2.88;;
50757;SDS011;36732;47.980;11.652;2023-05-19T03:55:27;6.95;;;3.30;;
50757;SDS011;36732;47.980;11.652;2023-05-19T03:57:53;6.97;;;2.83;;
50757;SDS011;36732;47.980;11.652;2023-05-19T04:00:20;10.35;;;3.42;;
50757;SDS011;36732;47.980;11.652;2023-05-19T04:02:46;5.72;;;3.70;;
50757;SDS011;36732;47.980;11.652;2023-05-19T04:05:12;5.78;;;3.58;;
50757;SDS011;36732;47.980;11.652;2023-05-19T04:07:38;7.30;;;3.85;;
50757;SDS011;36732;47.980;11.652;2023-05-19T04:10:06;5.25;;;3.20;;
50757;SDS011;36732;47.980;11.652;2023-05-19T04:12:32;7.30;;;3.28;;
50757;SDS011;36732;47.980;11.652;2023-05-19T04:14:58;7.25;;;3.67;;
50757;SDS011;36732;47.980;11.652;2023-05-19T04:17:24;5.28;;;3.13;;
50757;SDS011;36732;47.980;11.652;2023-05-19T04:19:51;5.80;;;3.33;;
50757;SDS011;36732;47.980;11.652;2023-05-19T04:22:17;5.93;;;3.60;;
50757;SDS011;36732;47.980;11.652;2023-05-19T04:24:43;11.95;;;3.80;;
50757;SDS011;36732;47.980;11.652;2023-05-19T04:27:10;6.45;;;3.78;;
50757;SDS011;36732;47.980;11.652;2023-05-19T04:29:37;7.97;;;3.10;;
50757;SDS011;36732;47.980;11.652;2023-05-19T04:32:04;4.65;;;2.88;;
50757;SDS011;36732;47.980;11.652;2023-05-19T04:34:34;3.33;;;2.60;;
50757;SDS011;36732;47.980;11.652;2023-05-19T04:37:04;5.32;;;3.50;;
50757;SDS011;36732;47.980;11.652;2023-05-19T04:39:34;6.95;;;3.97;;
50757;SDS011;36732;47.980;11.652;2023-05-19T04:42:02;7.00;;;3.65;;
50757;SDS011;36732;47.980;11.652;2023-05-19T04:44:28;14.68;;;3.60;;
50757;SDS011;36732;47.980;11.652;2023-05-19T04:46:55;8.52;;;3.72;;
50757;SDS011;36732;47.980;11.652;2023-05-19T04:49:21;7.57;;;3.10;;
50757;SDS011;36732;47.980;11.652;2023-05-19T04:51:52;5.82;;;3.17;;
50757;SDS011;36732;47.980;11.652;2023-05-19T04:54:18;5.95;;;3.25;;
50757;SDS011;36732;47.980;11.652;2023-05-19T04:56:43;11.25;;;4.13;;
50757;SDS011;36732;47.980;11.652;2023-05-19T04:59:09;6.03;;;3.17;;
50757;SDS011;36732;47.980;11.652;2023-05-19T05:01:35;7.68;;;3.00;;
50757;SDS011;36732;47.980;11.652;2023-05-19T05:04:04;5.13;;;2.70;;
50757;SDS011;36732;47.980;11.652;2023-05-19T05:06:31;7.35;;;3.22;;
50757;SDS011;36732;47.980;11.652;2023-05-19T05:08:57;6.35;;;3.88;;
50757;SDS011;36732;47.980;11.652;2023-05-19T05:11:28;6.57;;;3.42;;
50757;SDS011;36732;47.980;11.652;2023-05-19T05:13:54;5.50;;;3.15;;
50757;SDS011;36732;47.980;11.652;2023-05-19T05:16:22;7.97;;;3.50;;
50757;SDS011;36732;47.980;11.652;2023-05-19T05:18:48;6.22;;;3.45;;
50757;SDS011;36732;47.980;11.652;2023-05-19T05:21:14;7.82;;;3.53;;
50757;SDS011;36732;47.980;11.652;2023-05-19T05:23:40;4.05;;;2.88;;
50757;SDS011;36732;47.980;11.652;2023-05-19T05:26:17;6.75;;;2.60;;
50757;SDS011;36732;47.980;11.652;2023-05-19T05:28:45;4.28;;;3.03;;
50757;SDS011;36732;47.980;11.652;2023-05-19T05:31:11;5.78;;;2.70;;
50757;SDS011;36732;47.980;11.652;2023-05-19T05:33:37;7.63;;;3.05;;
50757;SDS011;36732;47.980;11.652;2023-05-19T05:36:03;6.55;;;2.92;;
50757;SDS011;36732;47.980;11.652;2023-05-19T05:38:29;5.43;;;3.25;;
50757;SDS011;36732;47.980;11.652;2023-05-19T05:40:55;5.88;;;3.40;;
50757;SDS011;36732;47.980;11.652;2023-05-19T05:43:21;6.75;;;2.67;;
50757;SDS011;36732;47.980;11.652;2023-05-19T05:45:46;4.88;;;3.38;;
50757;SDS011;36732;47.980;11.652;2023-05-19T05:48:12;8.73;;;2.80;;
50757;SDS011;36732;47.980;11.652;2023-05-19T05:50:38;5.38;;;2.78;;
50757;SDS011;36732;47.980;11.652;2023-05-19T05:53:07;9.55;;;3.20;;
50757;SDS011;36732;47.980;11.652;2023-05-19T05:55:37;7.18;;;3.50;;
50757;SDS011;36732;47.980;11.652;2023-05-19T05:58:03;7.47;;;2.92;;
50757;SDS011;36732;47.980;11.652;2023-05-19T06:00:29;5.70;;;3.13;;
50757;SDS011;36732;47.980;11.652;2023-05-19T06:02:55;9.45;;;3.80;;
50757;SDS011;36732;47.980;11.652;2023-05-19T06:05:21;8.80;;;3.90;;
50757;SDS011;36732;47.980;11.652;2023-05-19T06:07:46;4.88;;;2.83;;
50757;SDS011;36732;47.980;11.652;2023-05-19T06:10:12;3.67;;;2.47;;
50757;SDS011;36732;47.980;11.652;2023-05-19T06:12:38;6.15;;;2.88;;
50757;SDS011;36732;47.980;11.652;2023-05-19T06:15:07;6.88;;;3.65;;
50757;SDS011;36732;47.980;11.652;2023-05-19T06:17:32;7.20;;;3.30;;
50757;SDS011;36732;47.980;11.652;2023-05-19T06:20:02;4.85;;;2.58;;
50757;SDS011;36732;47.980;11.652;2023-05-19T06:22:29;7.72;;;3.35;;
50757;SDS011;36732;47.980;11.652;2023-05-19T06:24:55;4.60;;;2.97;;
50757;SDS011;36732;47.980;11.652;2023-05-19T06:27:21;8.48;;;3.17;;
50757;SDS011;36732;47.980;11.652;2023-05-19T06:29:47;4.97;;;2.45;;
50757;SDS011;36732;47.980;11.652;2023-05-19T06:32:12;7.72;;;2.80;;
50757;SDS011;36732;47.980;11.652;2023-05-19T06:34:38;6.40;;;3.58;;
50757;SDS011;36732;47.980;11.652;2023-05-19T06:37:04;8.65;;;3.28;;
50757;SDS011;36732;47.980;11.652;2023-05-19T06:39:30;5.35;;;3.05;;
50757;SDS011;36732;47.980;11.652;2023-05-19T06:41:56;7.35;;;3.22;;
50757;SDS011;36732;47.980;11.652;2023-05-19T06:44:22;4.65;;;2.97;;
50757;SDS011;36732;47.980;11.652;2023-05-19T06:46:47;5.97;;;2.63;;
50757;SDS011;36732;47.980;11.652;2023-05-19T06:49:13;6.60;;;2.92;;
50757;SDS011;36732;47.980;11.652;2023-05-19T06:51:39;5.47;;;2.60;;
50757;SDS011;36732;47.980;11.652;2023-05-19T06:54:05;4.57;;;2.85;;
50757;SDS011;36732;47.980;11.652;2023-05-19T06:56:31;6.95;;;3.10;;
50757;SDS011;36732;47.980;11.652;2023-05-19T06:58:56;4.30;;;2.42;;
50757;SDS011;36732;47.980;11.652;2023-05-19T07:01:22;9.20;;;3.20;;
50757;SDS011;36732;47.980;11.652;2023-05-19T07:03:50;5.80;;;2.65;;
50757;SDS011;36732;47.980;11.652;2023-05-19T07:06:16;5.43;;;2.70;;
50757;SDS011;36732;47.980;11.652;2023-05-19T07:08:41;6.00;;;2.75;;
50757;SDS011;36732;47.980;11.652;2023-05-19T07:11:07;3.63;;;2.58;;
50757;SDS011;36732;47.980;11.652;2023-05-19T07:13:33;7.88;;;2.85;;
50757;SDS011;36732;47.980;11.652;2023-05-19T07:15:58;5.22;;;2.88;;
50757;SDS011;36732;47.980;11.652;2023-05-19T07:18:24;4.07;;;2.70;;
50757;SDS011;36732;47.980;11.652;2023-05-19T07:20:50;4.57;;;2.95;;
50757;SDS011;36732;47.980;11.652;2023-05-19T07:23:17;6.15;;;3.33;;
50757;SDS011;36732;47.980;11.652;2023-05-19T07:25:43;4.13;;;2.67;;
50757;SDS011;36732;47.980;11.652;2023-05-19T07:28:09;3.40;;;2.40;;
50757;SDS011;36732;47.980;11.652;2023-05-19T07:30:34;3.50;;;2.42;;
50757;SDS011;36732;47.980;11.652;2023-05-19T07:33:00;5.22;;;2.58;;
50757;SDS011;36732;47.980;11.652;2023-05-19T07:35:26;8.13;;;3.03;;
50757;SDS011;36732;47.980;11.652;2023-05-19T07:37:51;5.88;;;2.72;;
50757;SDS011;36732;47.980;11.652;2023-05-19T07:40:17;4.72;;;3.15;;
50757;SDS011;36732;47.980;11.652;2023-05-19T07:42:43;7.82;;;3.17;;
50757;SDS011;36732;47.980;11.652;2023-05-19T07:45:09;9.10;;;3.92;;
50757;SDS011;36732;47.980;11.652;2023-05-19T07:47:35;8.52;;;3.42;;
50757;SDS011;36732;47.980;11.652;2023-05-19T07:50:01;5.10;;;2.70;;
50757;SDS011;36732;47.980;11.652;2023-05-19T07:52:28;7.35;;;3.05;;
50757;SDS011;36732;47.980;11.652;2023-05-19T07:54:53;3.72;;;2.40;;
50757;SDS011;36732;47.980;11.652;2023-05-19T07:57:19;3.90;;;2.20;;
50757;SDS011;36732;47.980;11.652;2023-05-19T07:59:46;3.33;;;2.90;;
50757;SDS011;36732;47.980;11.652;2023-05-19T08:02:11;5.18;;;2.78;;
50757;SDS011;36732;47.980;11.652;2023-05-19T08:04:37;8.55;;;2.80;;
50757;SDS011;36732;47.980;11.652;2023-05-19T08:07:03;5.22;;;2.78;;
50757;SDS011;36732;47.980;11.652;2023-05-19T08:09:28;5.40;;;2.63;;
50757;SDS011;36732;47.980;11.652;2023-05-19T08:11:54;4.75;;;2.78;;
50757;SDS011;36732;47.980;11.652;2023-05-19T08:14:20;4.47;;;3.05;;
50757;SDS011;36732;47.980;11.652;2023-05-19T08:16:47;7.20;;;2.95;;
50757;SDS011;36732;47.980;11.652;2023-05-19T08:19:13;4.35;;;2.67;;
50757;SDS011;36732;47.980;11.652;2023-05-19T08:21:39;3.05;;;2.75;;
50757;SDS011;36732;47.980;11.652;2023-05-19T08:24:06;5.75;;;2.70;;
50757;SDS011;36732;47.980;11.652;2023-05-19T08:26:32;3.40;;;2.40;;
50757;SDS011;36732;47.980;11.652;2023-05-19T08:28:58;3.13;;;2.53;;
50757;SDS011;36732;47.980;11.652;2023-05-19T08:31:24;4.18;;;2.60;;
50757;SDS011;36732;47.980;11.652;2023-05-19T08:33:50;4.70;;;2.70;;
50757;SDS011;36732;47.980;11.652;2023-05-19T08:36:16;5.43;;;2.33;;
50757;SDS011;36732;47.980;11.652;2023-05-19T08:38:42;4.22;;;2.70;;
50757;SDS011;36732;47.980;11.652;2023-05-19T08:41:08;4.90;;;2.60;;
50757;SDS011;36732;47.980;11.652;2023-05-19T08:43:34;3.72;;;2.40;;
50757;SDS011;36732;47.980;11.652;2023-05-19T08:45:59;5.13;;;2.47;;
50757;SDS011;36732;47.980;11.652;2023-05-19T08:48:28;7.35;;;3.17;;
50757;SDS011;36732;47.980;11.652;2023-05-19T08:51:01;3.40;;;2.53;;
50757;SDS011;36732;47.980;11.652;2023-05-19T08:53:44;4.72;;;2.67;;
50757;SDS011;36732;47.980;11.652;2023-05-19T08:56:16;3.83;;;2.47;;
50757;SDS011;36732;47.980;11.652;2023-05-19T08:58:45;3.38;;;2.30;;
50757;SDS011;36732;47.980;11.652;2023-05-19T09:01:15;4.63;;;2.70;;
50757;SDS011;36732;47.980;11.652;2023-05-19T09:03:42;3.42;;;2.45;;
50757;SDS011;36732;47.980;11.652;2023-05-19T09:06:09;3.60;;;2.00;;
50757;SDS011;36732;47.980;11.652;2023-05-19T09:08:42;4.93;;;2.63;;
50757;SDS011;36732;47.980;11.652;2023-05-19T09:11:08;5.68;;;3.00;;
50757;SDS011;36732;47.980;11.652;2023-05-19T09:13:34;5.38;;;2.85;;
50757;SDS011;36732;47.980;11.652;2023-05-19T09:16:00;5.97;;;2.50;;
50757;SDS011;36732;47.980;11.652;2023-05-19T09:18:27;3.67;;;2.42;;
50757;SDS011;36732;47.980;11.652;2023-05-19T09:20:57;3.80;;;2.35;;
50757;SDS011;36732;47.980;11.652;2023-05-19T09:23:27;8.98;;;2.25;;
50757;SDS011;36732;47.980;11.652;2023-05-19T09:25:59;12.63;;;4.40;;
50757;SDS011;36732;47.980;11.652;2023-05-19T09:28:33;6.22;;;2.75;;
50757;SDS011;36732;47.980;11.652;2023-05-19T09:31:05;4.82;;;2.80;;
50757;SDS011;36732;47.980;11.652;2023-05-19T09:33:33;3.45;;;2.40;;
50757;SDS011;36732;47.980;11.652;2023-05-19T09:36:06;3.78;;;2.25;;
50757;SDS011;36732;47.980;11.652;2023-05-19T09:38:36;6.70;;;3.28;;
50757;SDS011;36732;47.980;11.652;2023-05-19T09:41:03;12.85;;;4.15;;
50757;SDS011;36732;47.980;11.652;2023-05-19T09:43:32;7.82;;;2.70;;
50757;SDS011;36732;47.980;11.652;2023-05-19T09:45:59;5.18;;;2.90;;
50757;SDS011;36732;47.980;11.652;2023-05-19T09:48:28;4.75;;;2.92;;
50757;SDS011;36732;47.980;11.652;2023-05-19T09:50:54;4.93;;;2.90;;
50757;SDS011;36732;47.980;11.652;2023-05-19T09:53:21;3.45;;;2.72;;
50757;SDS011;36732;47.980;11.652;2023-05-19T09:55:49;3.20;;;2.63;;
50757;SDS011;36732;47.980;11.652;2023-05-19T09:58:18;4.80;;;2.60;;
50757;SDS011;36732;47.980;11.652;2023-05-19T10:00:45;3.45;;;2.45;;
50757;SDS011;36732;47.980;11.652;2023-05-19T10:03:12;4.65;;;2.72;;
50757;SDS011;36732;47.980;11.652;2023-05-19T10:05:38;4.50;;;2.83;;
50757;SDS011;36732;47.980;11.652;2023-05-19T10:08:05;7.28;;;3.20;;
50757;SDS011;36732;47.980;11.652;2023-05-19T10:10:34;8.25;;;2.80;;
50757;SDS011;36732;47.980;11.652;2023-05-19T10:13:02;3.30;;;2.65;;
50757;SDS011;36732;47.980;11.652;2023-05-19T10:15:28;4.55;;;2.67;;
50757;SDS011;36732;47.980;11.652;2023-05-19T10:17:54;4.63;;;3.05;;
50757;SDS011;36732;47.980;11.652;2023-05-19T10:20:21;7.55;;;3.08;;
50757;SDS011;36732;47.980;11.652;2023-05-19T10:22:46;5.25;;;3.05;;
50757;SDS011;36732;47.980;11.652;2023-05-19T10:25:13;6.00;;;3.08;;
50757;SDS011;36732;47.980;11.652;2023-05-19T10:27:41;4.10;;;3.33;;
50757;SDS011;36732;47.980;11.652;2023-05-19T10:30:32;5.60;;;3.13;;
50757;SDS011;36732;47.980;11.652;2023-05-19T10:33:02;5.13;;;3.38;;
50757;SDS011;36732;47.980;11.652;2023-05-19T10:38:48;5.00;;;3.25;;
50757;SDS011;36732;47.980;11.652;2023-05-19T10:41:34;3.65;;;2.80;;
50757;SDS011;36732;47.980;11.652;2023-05-19T10:47:26;4.68;;;3.42;;
50757;SDS011;36732;47.980;11.652;2023-05-19T10:49:53;6.80;;;4.25;;
50757;SDS011;36732;47.980;11.652;2023-05-19T10:52:22;4.18;;;2.88;;
50757;SDS011;36732;47.980;11.652;2023-05-19T10:54:54;5.45;;;4.40;;
50757;SDS011;36732;47.980;11.652;2023-05-19T10:57:26;6.00;;;3.10;;
50757;SDS011;36732;47.980;11.652;2023-05-19T10:59:52;4.77;;;3.67;;
50757;SDS011;36732;47.980;11.652;2023-05-19T11:02:54;7.55;;;4.22;;
50757;SDS011;36732;47.980;11.652;2023-05-19T11:05:24;7.40;;;4.18;;
50757;SDS011;36732;47.980;11.652;2023-05-19T11:07:54;4.28;;;3.25;;
50757;SDS011;36732;47.980;11.652;2023-05-19T11:10:30;5.40;;;3.67;;
50757;SDS011;36732;47.980;11.652;2023-05-19T11:12:56;4.90;;;3.83;;
50757;SDS011;36732;47.980;11.652;2023-05-19T11:15:25;6.75;;;3.55;;
50757;SDS011;36732;47.980;11.652;2023-05-19T11:17:52;6.03;;;4.00;;
50757;SDS011;36732;47.980;11.652;2023-05-19T11:20:25;4.15;;;3.53;;
50757;SDS011;36732;47.980;11.652;2023-05-19T11:25:47;18.30;;;14.15;;
50757;SDS011;36732;47.980;11.652;2023-05-19T11:28:18;7.15;;;5.13;;
50757;SDS011;36732;47.980;11.652;2023-05-19T11:30:50;6.30;;;4.07;;
50757;SDS011;36732;47.980;11.652;2023-05-19T11:33:21;5.30;;;3.50;;
50757;SDS011;36732;47.980;11.652;2023-05-19T11:35:51;5.40;;;4.00;;
50757;SDS011;36732;47.980;11.652;2023-05-19T11:38:19;6.32;;;4.28;;
50757;SDS011;36732;47.980;11.652;2023-05-19T11:40:47;5.63;;;3.50;;
50757;SDS011;36732;47.980;11.652;2023-05-19T11:43:17;5.40;;;3.88;;
50757;SDS011;36732;47.980;11.652;2023-05-19T11:45:42;9.55;;;6.75;;
50757;SDS011;36732;47.980;11.652;2023-05-19T11:48:10;9.95;;;7.03;;
50757;SDS011;36732;47.980;11.652;2023-05-19T11:50:36;8.10;;;6.88;;
50757;SDS011;36732;47.980;11.652;2023-05-19T11:53:05;5.55;;;4.53;;
50757;SDS011;36732;47.980;11.652;2023-05-19T11:55:31;4.18;;;3.72;;
50757;SDS011;36732;47.980;11.652;2023-05-19T11:58:00;3.92;;;3.20;;
50757;SDS011;36732;47.980;11.652;2023-05-19T12:00:27;6.70;;;4.15;;
50757;SDS011;36732;47.980;11.652;2023-05-19T12:02:55;6.55;;;3.45;;
50757;SDS011;36732;47.980;11.652;2023-05-19T12:05:22;5.10;;;4.50;;
50757;SDS011;36732;47.980;11.652;2023-05-19T12:07:50;4.30;;;3.60;;
50757;SDS011;36732;47.980;11.652;2023-05-19T12:10:26;6.57;;;3.67;;
50757;SDS011;36732;47.980;11.652;2023-05-19T12:12:54;4.35;;;3.15;;
50757;SDS011;36732;47.980;11.652;2023-05-19T12:15:21;4.88;;;4.00;;
50757;SDS011;36732;47.980;11.652;2023-05-19T12:17:49;4.90;;;3.90;;
50757;SDS011;36732;47.980;11.652;2023-05-19T12:20:20;4.65;;;3.55;;
50757;SDS011;36732;47.980;11.652;2023-05-19T12:22:47;5.53;;;4.40;;
50757;SDS011;36732;47.980;11.652;2023-05-19T12:25:14;4.75;;;3.83;;
50757;SDS011;36732;47.980;11.652;2023-05-19T12:27:41;6.95;;;3.83;;
50757;SDS011;36732;47.980;11.652;2023-05-19T12:30:08;5.20;;;3.78;;
50757;SDS011;36732;47.980;11.652;2023-05-19T12:32:34;5.25;;;4.45;;
50757;SDS011;36732;47.980;11.652;2023-05-19T12:35:01;4.00;;;3.60;;
50757;SDS011;36732;47.980;11.652;2023-05-19T12:37:29;5.85;;;4.43;;
50757;SDS011;36732;47.980;11.652;2023-05-19T12:39:55;5.38;;;4.40;;
50757;SDS011;36732;47.980;11.652;2023-05-19T12:42:21;5.45;;;4.78;;
50757;SDS011;36732;47.980;11.652;2023-05-19T12:44:49;7.85;;;5.63;;
50757;SDS011;36732;47.980;11.652;2023-05-19T12:47:16;10.68;;;6.50;;
50757;SDS011;36732;47.980;11.652;2023-05-19T12:52:25;8.35;;;6.15;;
50757;SDS011;36732;47.980;11.652;2023-05-19T12:55:02;22.42;;;6.55;;
50757;SDS011;36732;47.980;11.652;2023-05-19T12:57:32;9.07;;;5.95;;
50757;SDS011;36732;47.980;11.652;2023-05-19T13:00:00;9.25;;;5.25;;
50757;SDS011;36732;47.980;11.652;2023-05-19T13:03:02;8.32;;;6.07;;
50757;SDS011;36732;47.980;11.652;2023-05-19T13:05:31;8.25;;;6.15;;
50757;SDS011;36732;47.980;11.652;2023-05-19T13:08:20;6.80;;;5.70;;
50757;SDS011;36732;47.980;11.652;2023-05-19T13:10:47;9.18;;;5.82;;
50757;SDS011;36732;47.980;11.652;2023-05-19T13:13:13;14.25;;;5.93;;
50757;SDS011;36732;47.980;11.652;2023-05-19T13:15:41;10.90;;;6.22;;
50757;SDS011;36732;47.980;11.652;2023-05-19T13:18:10;21.20;;;6.22;;
50757;SDS011;36732;47.980;11.652;2023-05-19T13:20:37;7.55;;;5.55;;
50757;SDS011;36732;47.980;11.652;2023-05-19T13:23:05;8.27;;;5.80;;
50757;SDS011;36732;47.980;11.652;2023-05-19T13:25:34;7.28;;;5.78;;
50757;SDS011;36732;47.980;11.652;2023-05-19T13:28:00;7.03;;;5.63;;
50757;SDS011;36732;47.980;11.652;2023-05-19T13:30:30;8.93;;;6.80;;
50757;SDS011;36732;47.980;11.652;2023-05-19T13:32:57;6.32;;;5.72;;
50757;SDS011;36732;47.980;11.652;2023-05-19T13:35:22;7.68;;;5.53;;
50757;SDS011;36732;47.980;11.652;2023-05-19T13:37:48;7.07;;;6.20;;
50757;SDS011;36732;47.980;11.652;2023-05-19T13:40:15;8.05;;;5.65;;
50757;SDS011;36732;47.980;11.652;2023-05-19T13:42:41;11.43;;;6.20;;
50757;SDS011;36732;47.980;11.652;2023-05-19T13:45:07;10.80;;;5.90;;
50757;SDS011;36732;47.980;11.652;2023-05-19T13:47:34;6.88;;;6.03;;
50757;SDS011;36732;47.980;11.652;2023-05-19T13:50:00;7.78;;;6.25;;
50757;SDS011;36732;47.980;11.652;2023-05-19T13:52:28;15.32;;;6.57;;
50757;SDS011;36732;47.980;11.652;2023-05-19T13:54:54;9.45;;;5.97;;
50757;SDS011;36732;47.980;11.652;2023-05-19T13:57:20;11.43;;;6.25;;
50757;SDS011;36732;47.980;11.652;2023-05-19T13:59:50;5.82;;;5.28;;
50757;SDS011;36732;47.980;11.652;2023-05-19T14:02:17;7.63;;;5.47;;
50757;SDS011;36732;47.980;11.652;2023-05-19T14:04:43;8.55;;;6.43;;
50757;SDS011;36732;47.980;11.652;2023-05-19T14:07:08;8.00;;;5.43;;
50757;SDS011;36732;47.980;11.652;2023-05-19T14:09:34;6.90;;;5.05;;
50757;SDS011;36732;47.980;11.652;2023-05-19T14:12:00;16.35;;;6.85;;
50757;SDS011;36732;47.980;11.652;2023-05-19T14:14:26;6.70;;;6.10;;
50757;SDS011;36732;47.980;11.652;2023-05-19T14:16:52;7.03;;;6.07;;
50757;SDS011;36732;47.980;11.652;2023-05-19T14:19:18;10.45;;;6.55;;
50757;SDS011;36732;47.980;11.652;2023-05-19T14:21:44;6.85;;;5.75;;
50757;SDS011;36732;47.980;11.652;2023-05-19T14:24:09;6.68;;;5.82;;
50757;SDS011;36732;47.980;11.652;2023-05-19T14:26:35;7.25;;;5.97;;
50757;SDS011;36732;47.980;11.652;2023-05-19T14:29:01;7.68;;;6.10;;
50757;SDS011;36732;47.980;11.652;2023-05-19T14:31:27;10.25;;;6.20;;
50757;SDS011;36732;47.980;11.652;2023-05-19T14:33:53;8.25;;;5.80;;
50757;SDS011;36732;47.980;11.652;2023-05-19T14:36:19;8.68;;;6.60;;
50757;SDS011;36732;47.980;11.652;2023-05-19T14:38:45;6.88;;;6.18;;
50757;SDS011;36732;47.980;11.652;2023-05-19T14:41:10;7.22;;;6.15;;
50757;SDS011;36732;47.980;11.652;2023-05-19T14:43:36;7.40;;;5.32;;
50757;SDS011;36732;47.980;11.652;2023-05-19T14:46:02;7.72;;;6.28;;
50757;SDS011;36732;47.980;11.652;2023-05-19T14:48:27;7.30;;;6.28;;
50757;SDS011;36732;47.980;11.652;2023-05-19T14:50:53;8.23;;;6.15;;
50757;SDS011;36732;47.980;11.652;2023-05-19T14:53:19;6.55;;;5.63;;
50757;SDS011;36732;47.980;11.652;2023-05-19T14:55:47;11.82;;;6.65;;
50757;SDS011;36732;47.980;11.652;2023-05-19T14:58:13;8.60;;;5.80;;
50757;SDS011;36732;47.980;11.652;2023-05-19T15:00:41;8.88;;;6.57;;
50757;SDS011;36732;47.980;11.652;2023-05-19T15:03:07;8.98;;;7.25;;
50757;SDS011;36732;47.980;11.652;2023-05-19T15:05:33;9.13;;;6.85;;
50757;SDS011;36732;47.980;11.652;2023-05-19T15:08:00;7.63;;;6.38;;
50757;SDS011;36732;47.980;11.652;2023-05-19T15:10:27;7.15;;;6.45;;